Time;durP1;ratioP1;P1;durP2;ratioP2;P2;SDS_P1;SDS_P2;PMS_P1;PMS_P2;Temp;Humidity;BMP_temperature;BMP_pressure;BME280_temperature;BME280_humidity;BME280_pressure;Samples;Min_cycle;Max_cycle;Signal;HPM_P1;HPM_P2
2022/04/19 00:01:26;;;;;;;9.30;1.80;;;38.90;14.30;;;;;;5102086;28;20020;-59
2022/04/19 00:03:52;;;;;;;7.30;2.15;;;38.90;14.50;;;;;;5070168;28;20048;-58
2022/04/19 00:06:19;;;;;;;21.55;2.75;;;39.00;14.60;;;;;;5086086;28;20478;-60
2022/04/19 00:08:48;;;;;;;12.35;2.53;;;38.90;14.40;;;;;;5093450;28;20032;-58
2022/04/19 00:11:14;;;;;;;11.93;2.10;;;38.80;14.60;;;;;;5046914;28;20508;-58
2022/04/19 00:13:40;;;;;;;9.13;2.67;;;38.60;14.60;;;;;;5052292;28;20081;-58
2022/04/19 00:16:07;;;;;;;14.85;2.35;;;38.50;14.20;;;;;;5068902;28;20383;-62
2022/04/19 00:18:33;;;;;;;9.95;2.42;;;38.50;14.50;;;;;;5086876;28;20441;-59
2022/04/19 00:21:00;;;;;;;16.13;2.78;;;38.60;14.40;;;;;;5085912;28;20025;-61
2022/04/19 00:23:26;;;;;;;12.05;2.50;;;38.70;14.60;;;;;;5068641;28;20029;-59
2022/04/19 00:25:55;;;;;;;14.75;2.80;;;38.80;15.80;;;;;;5069553;28;20557;-58
2022/04/19 00:28:21;;;;;;;7.35;2.40;;;38.70;14.70;;;;;;5085677;28;20037;-59
2022/04/19 00:30:48;;;;;;;7.45;1.67;;;38.80;14.10;;;;;;5052299;28;20058;-59
2022/04/19 00:33:15;;;;;;;6.75;2.35;;;38.70;14.10;;;;;;5070026;28;20063;-58
2022/04/19 00:35:42;;;;;;;12.98;2.58;;;38.60;14.00;;;;;;5068542;28;20552;-58
2022/04/19 00:38:09;;;;;;;9.55;2.38;;;38.50;14.70;;;;;;5068461;28;20042;-58
2022/04/19 00:40:35;;;;;;;12.48;2.15;;;38.40;14.30;;;;;;5070568;28;20025;-58
2022/04/19 00:43:03;;;;;;;15.02;3.25;;;38.40;14.30;;;;;;5073586;28;20040;-59
2022/04/19 00:45:33;;;;;;;20.70;2.95;;;38.30;14.30;;;;;;5072295;28;20024;-58
2022/04/19 00:48:01;;;;;;;12.50;2.10;;;38.30;15.00;;;;;;5089299;28;20111;-57
2022/04/19 00:50:27;;;;;;;14.85;2.60;;;38.20;15.40;;;;;;5055821;28;20082;-57
2022/04/19 00:52:55;;;;;;;12.23;2.25;;;38.20;14.50;;;;;;5055716;28;20036;-58
2022/04/19 00:55:23;;;;;;;15.45;2.97;;;38.10;14.70;;;;;;5056052;28;20039;-57
2022/04/19 00:57:51;;;;;;;16.65;2.60;;;38.00;15.10;;;;;;5073366;28;20113;-55
2022/04/19 01:00:17;;;;;;;16.58;2.67;;;37.90;15.40;;;;;;5055623;28;20445;-58
2022/04/19 01:02:44;;;;;;;12.50;2.22;;;37.80;15.60;;;;;;5056100;28;20420;-58
2022/04/19 01:05:11;;;;;;;11.00;2.65;;;37.70;16.20;;;;;;5055030;28;20063;-58
2022/04/19 01:07:39;;;;;;;6.30;2.20;;;37.60;13.90;;;;;;5073144;28;20532;-59
2022/04/19 01:10:06;;;;;;;10.32;2.53;;;37.60;14.00;;;;;;5056558;28;20411;-59
2022/04/19 01:15:17;;;;;;;10.70;2.38;;;37.40;12.40;;;;;;5073130;28;20064;-60
2022/04/19 01:17:45;;;;;;;12.10;2.50;;;37.30;12.10;;;;;;5055910;28;20044;-61
2022/04/19 01:20:15;;;;;;;9.52;1.80;;;37.30;12.20;;;;;;5038745;28;20053;-57
2022/04/19 01:22:42;;;;;;;16.63;2.60;;;37.20;12.50;;;;;;5054428;28;20064;-58
2022/04/19 01:25:12;;;;;;;9.98;2.38;;;37.10;12.60;;;;;;5072156;28;20049;-61
2022/04/19 01:27:39;;;;;;;19.42;3.08;;;37.00;13.10;;;;;;5072305;28;20064;-58
2022/04/19 01:30:08;;;;;;;14.23;3.10;;;36.80;13.20;;;;;;5072749;28;20056;-61
2022/04/19 01:32:35;;;;;;;23.75;3.65;;;36.70;13.60;;;;;;5071806;28;20044;-58
2022/04/19 01:35:08;;;;;;;20.30;3.97;;;36.70;14.10;;;;;;5071008;28;20069;-57
2022/04/19 01:37:36;;;;;;;17.13;3.00;;;36.50;14.80;;;;;;5087220;28;20157;-59
2022/04/19 01:40:16;;;;;;;27.17;3.70;;;36.30;16.20;;;;;;5070209;28;20445;-58
2022/04/19 01:43:04;;;;;;;16.27;2.60;;;36.10;16.70;;;;;;5056774;28;20154;-58
2022/04/19 01:45:32;;;;;;;26.48;3.88;;;35.90;16.80;;;;;;5087974;28;20062;-58
2022/04/19 01:48:00;;;;;;;17.17;2.65;;;35.70;17.10;;;;;;5071468;28;20045;-57
2022/04/19 01:50:28;;;;;;;14.32;2.80;;;35.60;16.90;;;;;;5070405;28;20061;-60
2022/04/19 01:53:00;;;;;;;17.98;3.03;;;35.50;16.80;;;;;;5070697;28;20061;-58
2022/04/19 01:55:26;;;;;;;19.35;3.58;;;35.30;17.00;;;;;;5054188;28;20111;-61
2022/04/19 01:57:56;;;;;;;44.28;11.60;;;35.10;17.20;;;;;;5054405;28;20052;-59
2022/04/19 02:00:22;;;;;;;26.27;10.18;;;34.90;17.20;;;;;;5087030;28;20104;-63
2022/04/19 02:02:49;;;;;;;22.92;3.95;;;34.80;17.20;;;;;;5071745;28;20056;-61
2022/04/19 02:05:16;;;;;;;19.27;3.60;;;34.70;17.30;;;;;;5085950;28;20107;-58
2022/04/19 02:07:45;;;;;;;18.42;2.70;;;34.60;17.20;;;;;;5070225;28;20082;-59
2022/04/19 02:10:16;;;;;;;20.27;3.05;;;34.50;17.30;;;;;;5069804;28;20094;-59
2022/04/19 02:12:43;;;;;;;19.88;3.83;;;34.40;17.50;;;;;;5037194;28;20056;-58
2022/04/19 02:15:11;;;;;;;18.00;3.38;;;34.20;17.20;;;;;;5069963;28;20435;-59
2022/04/19 02:17:50;;;;;;;17.38;3.08;;;34.10;17.20;;;;;;5069965;28;20437;-58
2022/04/19 02:20:18;;;;;;;26.55;4.35;;;34.00;17.30;;;;;;5069565;28;20146;-60
2022/04/19 02:22:45;;;;;;;56.75;5.78;;;33.90;17.40;;;;;;5069963;28;20051;-65
2022/04/19 02:25:13;;;;;;;21.42;4.03;;;33.80;17.80;;;;;;5072519;28;20073;-61
2022/04/19 02:27:41;;;;;;;37.13;4.43;;;33.70;17.70;;;;;;5086996;28;20109;-62
2022/04/19 02:30:13;;;;;;;29.73;3.85;;;33.60;18.10;;;;;;5036744;28;20064;-60
2022/04/19 02:32:41;;;;;;;27.88;3.67;;;33.50;18.10;;;;;;5068983;28;20454;-62
2022/04/19 02:35:09;;;;;;;31.35;4.47;;;33.40;18.10;;;;;;5037287;28;20096;-61
2022/04/19 02:37:36;;;;;;;41.65;5.30;;;33.30;18.30;;;;;;5075349;28;20157;-59
2022/04/19 02:40:03;;;;;;;23.92;3.92;;;33.20;17.40;;;;;;5036725;28;20097;-63
2022/04/19 02:42:29;;;;;;;17.27;3.40;;;33.20;16.60;;;;;;5086157;28;20448;-61
2022/04/19 02:44:56;;;;;;;13.65;3.30;;;33.10;16.50;;;;;;5086468;28;20210;-58
2022/04/19 02:47:22;;;;;;;18.25;3.10;;;33.00;16.50;;;;;;5084699;28;20472;-60
2022/04/19 02:49:49;;;;;;;18.63;3.10;;;33.00;16.30;;;;;;5086214;28;20078;-60
2022/04/19 02:52:17;;;;;;;13.45;2.88;;;32.90;16.40;;;;;;5090785;28;20082;-59
2022/04/19 02:54:43;;;;;;;39.63;4.28;;;32.80;16.50;;;;;;5071377;28;20686;-59
2022/04/19 02:57:09;;;;;;;14.23;3.08;;;32.70;16.50;;;;;;5069719;28;20108;-61
2022/04/19 02:59:37;;;;;;;12.52;2.83;;;32.70;16.60;;;;;;5067842;28;20098;-60
2022/04/19 03:02:05;;;;;;;15.38;3.35;;;32.60;16.70;;;;;;5052082;28;20072;-59
2022/04/19 03:04:31;;;;;;;10.32;2.65;;;32.50;16.80;;;;;;5070445;28;20579;-59
2022/04/19 03:06:58;;;;;;;18.23;3.42;;;32.40;17.00;;;;;;5052362;28;20071;-59
2022/04/19 03:09:24;;;;;;;43.22;4.43;;;32.40;17.30;;;;;;5036888;28;20792;-59
2022/04/19 03:11:51;;;;;;;23.95;4.70;;;32.30;17.50;;;;;;5089932;28;20066;-59
2022/04/19 03:14:17;;;;;;;27.02;3.92;;;32.30;17.80;;;;;;5054894;28;20096;-60
2022/04/19 03:16:44;;;;;;;13.38;3.13;;;32.20;17.80;;;;;;5035818;28;20067;-61
2022/04/19 03:19:13;;;;;;;20.08;4.00;;;32.20;17.80;;;;;;5052251;28;20569;-60
2022/04/19 03:21:41;;;;;;;14.05;3.10;;;32.10;17.50;;;;;;5052577;28;20475;-59
2022/04/19 03:29:36;;;;;;;27.33;4.25;;;31.90;16.10;;;;;;5070125;28;20120;-61
2022/04/19 03:32:03;;;;;;;21.00;4.97;;;31.80;16.90;;;;;;5035123;28;20139;-60
2022/04/19 03:34:29;;;;;;;21.27;4.22;;;31.90;17.60;;;;;;5085299;28;20559;-60
2022/04/19 03:36:56;;;;;;;19.38;3.60;;;31.80;18.30;;;;;;5081081;28;20076;-62
2022/04/19 03:39:22;;;;;;;17.50;3.38;;;31.80;18.80;;;;;;5071510;28;20071;-60
2022/04/19 03:41:48;;;;;;;17.10;3.33;;;31.80;19.00;;;;;;5084902;28;20080;-59
2022/04/19 03:44:15;;;;;;;20.75;3.80;;;31.80;19.10;;;;;;5069283;28;20144;-58
2022/04/19 03:49:28;;;;;;;25.63;3.22;;;31.70;19.40;;;;;;5069505;28;20588;-59
2022/04/19 03:51:55;;;;;;;20.38;3.78;;;31.60;19.40;;;;;;5069804;28;20415;-59
2022/04/19 03:54:21;;;;;;;13.07;3.55;;;31.60;19.30;;;;;;5051369;28;20285;-59
2022/04/19 03:56:47;;;;;;;15.88;3.10;;;31.60;19.20;;;;;;5064441;28;20066;-60
2022/04/19 03:59:14;;;;;;;14.40;2.75;;;31.50;19.20;;;;;;5064615;28;20533;-59
2022/04/19 04:01:40;;;;;;;11.57;2.33;;;31.50;19.50;;;;;;5068562;28;20070;-61
2022/04/19 04:04:07;;;;;;;14.88;3.03;;;31.40;19.50;;;;;;5084523;28;20070;-59
2022/04/19 04:06:37;;;;;;;14.82;2.75;;;31.40;19.50;;;;;;5068434;28;20075;-60
2022/04/19 04:09:04;;;;;;;10.23;3.05;;;31.40;19.50;;;;;;5073396;28;20123;-61
2022/04/19 04:11:32;;;;;;;18.17;3.53;;;31.30;19.50;;;;;;5051386;28;20079;-58
2022/04/19 04:13:58;;;;;;;14.73;3.28;;;31.30;19.70;;;;;;5050661;28;20087;-59
2022/04/19 04:16:27;;;;;;;12.65;3.10;;;31.20;20.00;;;;;;5079578;28;20082;-59
2022/04/19 04:18:53;;;;;;;10.75;3.20;;;31.10;20.20;;;;;;5055248;28;20074;-59
2022/04/19 04:21:19;;;;;;;12.95;3.63;;;31.10;20.50;;;;;;5075052;28;20069;-58
2022/04/19 04:23:46;;;;;;;17.40;3.80;;;31.00;20.40;;;;;;5071512;28;20097;-60
2022/04/19 04:26:12;;;;;;;13.60;3.55;;;30.90;20.40;;;;;;5055353;28;20074;-59
2022/04/19 04:28:39;;;;;;;12.82;3.13;;;30.80;20.40;;;;;;5075001;28;20104;-59
2022/04/19 04:31:06;;;;;;;17.08;3.92;;;30.80;20.40;;;;;;5086814;28;20109;-55
2022/04/19 04:33:32;;;;;;;15.23;2.92;;;30.80;20.50;;;;;;5063075;28;20099;-54
2022/04/19 04:35:59;;;;;;;13.18;3.17;;;31.30;20.00;;;;;;5079735;28;20102;-53
2022/04/19 04:38:25;;;;;;;10.48;2.70;;;31.50;19.80;;;;;;5072676;28;20534;-56
2022/04/19 04:40:52;;;;;;;19.63;3.08;;;31.60;19.60;;;;;;5071116;28;20071;-55
2022/04/19 04:43:18;;;;;;;12.20;2.90;;;31.60;19.60;;;;;;5054035;28;20117;-56
2022/04/19 04:45:44;;;;;;;20.90;3.60;;;31.60;19.60;;;;;;5074012;28;20097;-57
2022/04/19 04:50:55;;;;;;;13.52;3.58;;;31.60;19.40;;;;;;5074966;28;20093;-55
2022/04/19 04:53:22;;;;;;;16.55;3.53;;;31.60;19.10;;;;;;5087735;28;20100;-57
2022/04/19 04:55:48;;;;;;;17.95;3.38;;;31.60;18.90;;;;;;5065082;28;20174;-55
2022/04/19 04:58:15;;;;;;;22.35;3.80;;;31.60;18.90;;;;;;5071361;28;20076;-57
2022/04/19 05:00:41;;;;;;;15.60;3.35;;;31.60;18.70;;;;;;5087274;28;20096;-56
2022/04/19 05:03:07;;;;;;;15.65;3.72;;;31.60;18.70;;;;;;5089330;28;20065;-56
2022/04/19 05:05:34;;;;;;;12.43;3.17;;;31.60;18.60;;;;;;5079489;28;20115;-56
2022/04/19 05:08:03;;;;;;;12.95;3.47;;;31.50;18.60;;;;;;5074105;28;20499;-56
2022/04/19 05:10:30;;;;;;;16.90;4.25;;;31.50;18.70;;;;;;5085292;28;20131;-57
2022/04/19 05:12:56;;;;;;;20.60;3.60;;;31.30;18.90;;;;;;5070182;28;20135;-56
2022/04/19 05:15:23;;;;;;;18.65;4.13;;;31.20;18.90;;;;;;5070610;28;20086;-59
2022/04/19 05:17:49;;;;;;;15.57;3.90;;;31.10;19.10;;;;;;5070561;28;20093;-54
2022/04/19 05:20:16;;;;;;;16.70;4.43;;;31.10;19.30;;;;;;5073294;28;20420;-56
2022/04/19 05:22:42;;;;;;;16.70;4.10;;;30.90;19.30;;;;;;5077860;28;20077;-53
2022/04/19 05:25:09;;;;;;;19.45;4.13;;;30.90;19.40;;;;;;5071972;28;20635;-53
2022/04/19 05:27:35;;;;;;;18.25;3.60;;;30.80;19.10;;;;;;5037432;28;20106;-53
2022/04/19 05:30:01;;;;;;;13.40;3.50;;;30.70;19.10;;;;;;5071914;28;20091;-58
2022/04/19 05:32:28;;;;;;;16.02;3.53;;;30.70;19.00;;;;;;5069663;28;20082;-55
2022/04/19 05:34:54;;;;;;;12.27;3.13;;;30.60;18.90;;;;;;5071998;28;20137;-54
2022/04/19 05:37:21;;;;;;;12.45;3.72;;;30.50;18.90;;;;;;5070056;28;20090;-59
2022/04/19 05:39:48;;;;;;;13.75;3.20;;;30.50;19.00;;;;;;5054006;28;20391;-55
2022/04/19 05:42:15;;;;;;;13.20;3.40;;;30.50;18.90;;;;;;5071685;28;20070;-56
2022/04/19 05:44:41;;;;;;;21.13;3.28;;;30.40;18.60;;;;;;5087131;28;20069;-56
2022/04/19 05:47:07;;;;;;;15.32;4.38;;;30.50;18.80;;;;;;5037508;28;20073;-56
2022/04/19 05:49:34;;;;;;;11.48;3.63;;;30.50;18.60;;;;;;5037629;28;20072;-59
2022/04/19 05:52:01;;;;;;;11.95;3.00;;;30.40;18.80;;;;;;5087535;28;20076;-60
2022/04/19 05:54:28;;;;;;;13.10;2.75;;;30.30;18.90;;;;;;5040573;28;20171;-54
2022/04/19 05:56:54;;;;;;;9.18;2.53;;;30.20;19.20;;;;;;5072822;28;20071;-53
2022/04/19 05:59:21;;;;;;;13.60;2.88;;;30.10;19.50;;;;;;5054454;28;20103;-54
2022/04/19 06:07:16;;;;;;;19.30;3.15;;;29.80;20.00;;;;;;5069540;28;20093;-53
2022/04/19 06:09:42;;;;;;;10.70;2.83;;;29.70;20.10;;;;;;5071940;28;20076;-56
2022/04/19 06:12:09;;;;;;;11.68;2.67;;;29.60;20.20;;;;;;5088342;28;20158;-54
2022/04/19 06:14:35;;;;;;;12.23;2.58;;;29.50;20.20;;;;;;5077639;28;20087;-53
2022/04/19 06:17:02;;;;;;;12.48;3.00;;;29.50;20.10;;;;;;5073092;28;20146;-56
2022/04/19 06:19:28;;;;;;;7.57;2.70;;;29.50;20.10;;;;;;5076348;28;20070;-55
2022/04/19 06:21:58;;;;;;;10.50;2.50;;;29.50;20.00;;;;;;5053816;28;20077;-55
2022/04/19 06:24:25;;;;;;;13.35;2.45;;;29.50;19.70;;;;;;5076071;28;20517;-56
2022/04/19 06:26:52;;;;;;;15.85;2.50;;;29.50;19.50;;;;;;5075041;28;20530;-52
2022/04/19 06:29:18;;;;;;;13.73;2.67;;;29.50;19.30;;;;;;5090271;28;20119;-56
2022/04/19 06:31:45;;;;;;;11.45;2.97;;;29.60;19.30;;;;;;5091313;28;20443;-56
2022/04/19 06:34:11;;;;;;;12.02;3.00;;;29.50;19.10;;;;;;5053063;28;20103;-58
2022/04/19 06:36:38;;;;;;;12.27;2.67;;;29.50;18.80;;;;;;5036604;28;20183;-55
2022/04/19 06:39:05;;;;;;;8.32;2.70;;;29.50;18.60;;;;;;5088610;28;20070;-55
2022/04/19 06:41:32;;;;;;;9.52;2.63;;;29.50;18.50;;;;;;5075763;28;20108;-56
2022/04/19 06:43:59;;;;;;;13.07;2.63;;;29.60;18.60;;;;;;5069848;28;20459;-52
2022/04/19 06:46:26;;;;;;;10.73;2.53;;;29.60;18.40;;;;;;5071365;28;20072;-55
2022/04/19 06:48:56;;;;;;;10.93;2.90;;;29.60;18.50;;;;;;5088764;28;20118;-53
2022/04/19 06:51:23;;;;;;;9.82;2.30;;;29.60;18.80;;;;;;5072024;28;20160;-53
2022/04/19 06:53:50;;;;;;;9.13;2.28;;;29.50;18.30;;;;;;5072912;28;20431;-53
2022/04/19 06:56:17;;;;;;;8.32;2.42;;;29.50;18.10;;;;;;5055809;28;20080;-58
2022/04/19 06:58:44;;;;;;;13.80;2.90;;;29.40;18.10;;;;;;5091432;28;20575;-54
2022/04/19 07:01:10;;;;;;;7.93;2.35;;;29.30;18.20;;;;;;5072471;28;20116;-59
2022/04/19 07:03:38;;;;;;;10.82;2.75;;;29.30;18.30;;;;;;5054087;28;20084;-53
2022/04/19 07:06:05;;;;;;;12.15;2.38;;;29.20;18.50;;;;;;5075478;28;20068;-52
2022/04/19 07:08:32;;;;;;;6.95;2.30;;;29.10;18.50;;;;;;5053301;28;20082;-54
2022/04/19 07:11:00;;;;;;;10.80;2.58;;;29.10;18.60;;;;;;5037337;28;20124;-55
2022/04/19 07:13:27;;;;;;;10.00;2.30;;;29.10;18.80;;;;;;5054901;28;20086;-54
2022/04/19 07:15:54;;;;;;;9.18;2.60;;;29.00;18.80;;;;;;5072839;28;20089;-53
2022/04/19 07:18:23;;;;;;;9.82;2.67;;;29.00;18.80;;;;;;5087824;28;20078;-55
2022/04/19 07:29:10;;;;;;;6.82;2.00;;;28.70;18.90;;;;;;5070532;28;20089;-55
2022/04/19 07:31:41;;;;;;;9.88;2.33;;;28.60;19.00;;;;;;5088341;28;20072;-56
2022/04/19 07:34:08;;;;;;;9.45;2.28;;;28.60;19.10;;;;;;5087697;28;20397;-55
2022/04/19 07:36:35;;;;;;;10.20;2.30;;;28.50;19.10;;;;;;5037595;28;20091;-52
2022/04/19 07:39:05;;;;;;;7.05;2.00;;;28.50;19.20;;;;;;5066686;28;20068;-53
2022/04/19 07:41:32;;;;;;;10.38;2.20;;;28.40;19.20;;;;;;5086825;28;20494;-58
2022/04/19 07:43:59;;;;;;;8.38;2.30;;;28.30;19.20;;;;;;5055362;28;20068;-56
2022/04/19 07:46:26;;;;;;;12.82;2.10;;;28.20;19.40;;;;;;5088595;28;20071;-53
2022/04/19 07:48:52;;;;;;;10.40;2.42;;;28.10;19.60;;;;;;5052459;28;20103;-58
2022/04/19 07:51:19;;;;;;;12.07;2.30;;;28.00;19.80;;;;;;5050585;28;20124;-54
2022/04/19 07:53:47;;;;;;;15.63;3.03;;;27.90;20.30;;;;;;5086000;28;20187;-57
2022/04/19 07:56:13;;;;;;;14.45;2.78;;;27.80;20.90;;;;;;5073447;28;20476;-53
2022/04/19 07:58:42;;;;;;;14.32;3.05;;;27.70;21.30;;;;;;5070257;28;20480;-54
2022/04/19 08:01:10;;;;;;;14.57;3.53;;;27.60;21.70;;;;;;5073850;28;20075;-55
2022/04/19 08:03:37;;;;;;;14.45;3.05;;;27.50;22.20;;;;;;5070585;28;20415;-56
2022/04/19 08:06:04;;;;;;;18.25;2.92;;;27.40;22.40;;;;;;5087652;28;20242;-54
2022/04/19 08:08:30;;;;;;;22.30;3.15;;;27.30;22.70;;;;;;5073483;28;20522;-55
2022/04/19 08:10:57;;;;;;;20.50;3.75;;;27.30;22.80;;;;;;5034579;28;20225;-53
2022/04/19 08:13:24;;;;;;;15.18;2.92;;;27.30;22.90;;;;;;5069729;28;20083;-57
2022/04/19 08:15:51;;;;;;;20.83;3.58;;;27.30;22.80;;;;;;5073898;28;20082;-55
2022/04/19 08:18:19;;;;;;;18.15;2.85;;;27.30;22.40;;;;;;5067865;28;20064;-53
2022/04/19 08:20:46;;;;;;;18.27;2.97;;;27.30;22.30;;;;;;5072371;28;20068;-55
2022/04/19 08:23:13;;;;;;;19.38;3.60;;;27.30;22.30;;;;;;5035658;28;21548;-59
2022/04/19 08:25:42;;;;;;;11.95;2.97;;;27.30;22.30;;;;;;5072324;28;20082;-55
2022/04/19 08:28:10;;;;;;;12.60;2.38;;;27.30;22.20;;;;;;5087625;28;20100;-54
2022/04/19 08:30:36;;;;;;;14.23;2.88;;;27.30;21.80;;;;;;5074269;28;20072;-60
2022/04/19 08:33:03;;;;;;;14.32;2.67;;;27.30;21.30;;;;;;5074746;28;20102;-56
2022/04/19 08:35:29;;;;;;;16.20;2.95;;;27.30;21.20;;;;;;5087342;28;20198;-58
2022/04/19 08:37:56;;;;;;;9.52;2.65;;;27.30;20.70;;;;;;5085846;28;20079;-54
2022/04/19 08:40:25;;;;;;;19.23;3.42;;;27.30;20.60;;;;;;5086339;28;20068;-57
2022/04/19 08:42:53;;;;;;;13.07;2.58;;;27.30;20.50;;;;;;5073125;28;20078;-53
2022/04/19 08:45:20;;;;;;;10.57;2.22;;;27.30;20.20;;;;;;5069684;28;20095;-53
2022/04/19 08:47:48;;;;;;;11.15;2.35;;;27.30;20.30;;;;;;5073000;28;20110;-55
2022/04/19 08:50:19;;;;;;;11.95;3.50;;;27.30;20.20;;;;;;5055628;28;20087;-54
2022/04/19 08:52:46;;;;;;;19.05;7.00;;;27.30;20.20;;;;;;5072205;28;20475;-54
2022/04/19 08:57:59;;;;;;;26.50;10.95;;;27.20;20.10;;;;;;5072335;28;20128;-55
2022/04/19 09:00:27;;;;;;;23.85;11.50;;;27.20;20.10;;;;;;5088476;28;20084;-55
2022/04/19 09:02:59;;;;;;;18.23;5.80;;;27.20;20.20;;;;;;5070917;28;20085;-55
2022/04/19 09:05:27;;;;;;;15.52;4.50;;;27.10;20.10;;;;;;5091693;28;20521;-58
2022/04/19 09:07:58;;;;;;;13.43;4.55;;;27.10;20.10;;;;;;5075971;28;20078;-55
2022/04/19 09:10:27;;;;;;;14.30;3.60;;;27.10;20.10;;;;;;5075947;28;20144;-53
2022/04/19 09:12:58;;;;;;;11.50;3.65;;;27.10;20.10;;;;;;5074648;28;20088;-60
2022/04/19 09:15:35;;;;;;;15.00;3.55;;;27.00;20.10;;;;;;5076891;28;20088;-54
2022/04/19 09:18:02;;;;;;;13.80;3.45;;;27.00;19.70;;;;;;5055575;28;20090;-54
2022/04/19 09:20:28;;;;;;;11.95;2.92;;;27.00;19.70;;;;;;5058672;28;20071;-57
2022/04/19 09:23:06;;;;;;;23.02;3.70;;;26.90;19.90;;;;;;5076090;28;21108;-55
2022/04/19 09:25:34;;;;;;;14.68;3.28;;;26.90;20.20;;;;;;5074777;28;20444;-53
2022/04/19 09:28:02;;;;;;;13.35;2.72;;;26.80;20.40;;;;;;5052964;28;20163;-54
2022/04/19 09:30:36;;;;;;;11.85;2.90;;;26.70;20.50;;;;;;5090581;28;20098;-55
2022/04/19 09:33:11;;;;;;;8.18;2.53;;;26.60;20.40;;;;;;5058260;28;20072;-56
2022/04/19 09:35:39;;;;;;;10.23;2.50;;;26.50;19.60;;;;;;5076483;28;20113;-56
2022/04/19 09:38:09;;;;;;;11.23;2.80;;;26.50;18.50;;;;;;5075387;28;20645;-59
2022/04/19 09:40:41;;;;;;;8.80;2.45;;;26.50;18.30;;;;;;5058075;28;20152;-59
2022/04/19 09:43:10;;;;;;;10.73;1.98;;;26.40;18.30;;;;;;5075191;28;20109;-60
2022/04/19 09:45:58;;;;;;;10.90;2.28;;;26.40;18.60;;;;;;5076554;28;20569;-55
2022/04/19 09:48:28;;;;;;;8.13;1.80;;;26.40;18.60;;;;;;5089959;28;20550;-60
2022/04/19 09:51:03;;;;;;;9.65;1.80;;;26.30;18.60;;;;;;5075741;28;20581;-54
2022/04/19 09:53:38;;;;;;;13.55;2.05;;;26.40;18.70;;;;;;5076401;28;20563;-56
2022/04/19 09:56:12;;;;;;;10.97;2.27;;;26.30;18.70;;;;;;5073012;28;20088;-53
2022/04/19 09:58:39;;;;;;;10.45;2.42;;;26.30;19.00;;;;;;5056315;28;20074;-60
2022/04/19 10:01:06;;;;;;;12.32;2.55;;;26.30;19.30;;;;;;5052139;28;20073;-56
2022/04/19 10:09:05;;;;;;;9.55;2.40;;;26.10;19.90;;;;;;5074895;28;20113;-56
2022/04/19 10:11:32;;;;;;;14.13;2.50;;;26.00;20.20;;;;;;5073924;28;20548;-53
2022/04/19 10:13:59;;;;;;;13.45;2.63;;;25.90;20.50;;;;;;5072659;28;20137;-54
2022/04/19 10:16:29;;;;;;;9.60;2.40;;;25.80;20.50;;;;;;5089656;28;20171;-55
2022/04/19 10:18:56;;;;;;;17.15;2.80;;;25.70;20.40;;;;;;5075678;28;20112;-53
2022/04/19 10:21:31;;;;;;;21.35;3.65;;;25.70;20.20;;;;;;5076730;28;20066;-55
2022/04/19 10:24:15;;;;;;;24.88;3.72;;;25.70;19.90;;;;;;5075903;28;20422;-53
2022/04/19 10:26:51;;;;;;;30.27;3.30;;;25.60;19.30;;;;;;5074518;28;20068;-58
2022/04/19 10:29:25;;;;;;;23.23;3.90;;;25.70;18.90;;;;;;5076088;28;20083;-53
2022/04/19 10:32:08;;;;;;;23.33;3.75;;;25.70;18.70;;;;;;5071144;28;20123;-55
2022/04/19 10:34:36;;;;;;;20.58;3.38;;;25.70;18.40;;;;;;5057235;28;20569;-58
2022/04/19 10:37:18;;;;;;;17.92;3.72;;;25.80;18.30;;;;;;5054258;28;20174;-54
2022/04/19 10:39:49;;;;;;;21.25;3.45;;;25.80;18.10;;;;;;5074802;28;20064;-54
2022/04/19 10:42:35;;;;;;;28.40;4.18;;;25.80;17.80;;;;;;5057951;28;20846;-56
2022/04/19 10:45:25;;;;;;;25.35;4.05;;;25.80;17.80;;;;;;5069292;28;20075;-55
2022/04/19 10:47:51;;;;;;;31.02;4.53;;;25.80;17.70;;;;;;5073214;28;20084;-56
2022/04/19 10:50:34;;;;;;;20.35;3.95;;;25.90;17.60;;;;;;5073744;28;20092;-56
2022/04/19 10:53:09;;;;;;;22.35;4.13;;;25.90;17.50;;;;;;5051782;28;20072;-55
2022/04/19 10:55:36;;;;;;;24.95;4.50;;;25.90;17.50;;;;;;5086337;28;20563;-53
2022/04/19 10:58:06;;;;;;;28.88;3.92;;;25.90;17.70;;;;;;5068683;28;20592;-53
2022/04/19 11:00:38;;;;;;;26.83;3.97;;;25.90;17.80;;;;;;5089354;28;20067;-57
2022/04/19 11:03:35;;;;;;;35.63;4.70;;;25.90;17.80;;;;;;5072315;28;20084;-55
2022/04/19 11:06:03;;;;;;;21.17;4.10;;;25.90;17.80;;;;;;5056468;28;20092;-56
2022/04/19 11:08:36;;;;;;;25.40;3.83;;;25.90;17.80;;;;;;5088525;28;20102;-59
2022/04/19 11:11:02;;;;;;;34.80;4.68;;;25.90;17.80;;;;;;5071613;28;20591;-56
2022/04/19 11:13:35;;;;;;;20.48;3.95;;;25.80;17.90;;;;;;5074410;28;20092;-56
2022/04/19 11:16:08;;;;;;;22.55;4.03;;;25.90;17.90;;;;;;5070614;28;20091;-52
2022/04/19 11:18:54;;;;;;;22.95;3.58;;;25.80;17.70;;;;;;5074116;28;20073;-55
2022/04/19 11:21:50;;;;;;;18.27;3.33;;;25.80;17.60;;;;;;5088363;28;20103;-55
2022/04/19 11:24:53;;;;;;;22.35;3.70;;;25.80;17.50;;;;;;5064301;28;20085;-58
2022/04/19 11:27:20;;;;;;;26.05;3.53;;;25.70;17.60;;;;;;5072915;28;20414;-55
2022/04/19 11:29:50;;;;;;;25.35;4.05;;;25.80;17.70;;;;;;5074096;28;21436;-56
2022/04/19 11:32:26;;;;;;;20.33;3.97;;;25.70;17.70;;;;;;5074423;28;20103;-54
2022/04/19 11:35:01;;;;;;;20.20;3.60;;;25.70;17.90;;;;;;5057090;28;20114;-59
2022/04/19 11:37:32;;;;;;;26.02;4.45;;;25.70;17.90;;;;;;5053851;28;20107;-58
2022/04/19 11:48:30;;;;;;;24.20;4.05;;;25.50;18.00;;;;;;5074441;28;20110;-56
2022/04/19 11:51:07;;;;;;;24.17;4.03;;;25.50;18.10;;;;;;5072624;28;20534;-59
2022/04/19 11:53:34;;;;;;;24.77;3.97;;;25.50;18.20;;;;;;5067759;28;20529;-57
2022/04/19 11:56:01;;;;;;;22.92;4.32;;;25.40;18.30;;;;;;5072709;28;20182;-53
2022/04/19 11:58:28;;;;;;;31.48;4.68;;;25.40;18.40;;;;;;5072713;28;20072;-54
2022/04/19 12:01:14;;;;;;;25.90;4.25;;;25.40;18.70;;;;;;5056460;28;20070;-56
2022/04/19 12:03:42;;;;;;;33.03;4.43;;;25.30;18.80;;;;;;5051070;28;20471;-56
2022/04/19 12:06:19;;;;;;;30.88;4.63;;;25.30;19.00;;;;;;5072665;28;20539;-56
2022/04/19 12:08:49;;;;;;;35.70;4.47;;;25.20;18.80;;;;;;5055601;28;20516;-54
2022/04/19 12:11:28;;;;;;;33.22;4.97;;;25.20;18.70;;;;;;5072409;28;20075;-56
2022/04/19 12:13:56;;;;;;;30.65;4.75;;;25.20;19.60;;;;;;5069728;28;20222;-55
2022/04/19 12:16:33;;;;;;;33.10;4.40;;;25.10;20.20;;;;;;5050888;28;20137;-58
2022/04/19 12:19:02;;;;;;;36.70;5.13;;;25.00;20.40;;;;;;5072116;28;20079;-58
2022/04/19 12:21:38;;;;;;;40.67;5.53;;;25.00;21.00;;;;;;5071532;28;20453;-56
2022/04/19 12:24:24;;;;;;;35.33;4.68;;;24.90;21.20;;;;;;5070696;28;20544;-55
2022/04/19 12:27:12;;;;;;;43.95;5.85;;;24.80;21.60;;;;;;5071339;28;20080;-57
2022/04/19 12:29:55;;;;;;;27.48;4.53;;;24.70;21.70;;;;;;5071484;28;20652;-55
2022/04/19 12:32:21;;;;;;;38.22;5.28;;;24.60;21.10;;;;;;5090039;28;20179;-55
2022/04/19 12:34:48;;;;;;;31.38;5.07;;;24.50;21.40;;;;;;5068921;28;20103;-55
2022/04/19 12:37:18;;;;;;;32.67;5.43;;;24.40;21.40;;;;;;5074707;28;20546;-56
2022/04/19 12:39:59;;;;;;;33.50;4.78;;;24.30;21.80;;;;;;5090377;28;20540;-59
2022/04/19 12:42:26;;;;;;;42.75;5.18;;;24.30;21.70;;;;;;5059049;28;20099;-54
2022/04/19 12:45:05;;;;;;;39.17;6.30;;;24.20;21.90;;;;;;5076414;28;20104;-59
2022/04/19 12:47:33;;;;;;;40.28;5.55;;;24.20;22.10;;;;;;5068348;28;20495;-56
2022/04/19 12:50:13;;;;;;;40.80;4.72;;;24.10;21.70;;;;;;5074258;28;20149;-54
2022/04/19 12:52:41;;;;;;;28.98;4.80;;;24.00;21.50;;;;;;5052979;28;20094;-55
2022/04/19 12:55:11;;;;;;;22.02;4.72;;;24.10;21.00;;;;;;5073152;28;20406;-54
2022/04/19 13:00:23;;;;;;;29.48;5.10;;;24.30;18.60;;;;;;5075429;28;20198;-55
2022/04/19 13:02:50;;;;;;;24.90;4.05;;;24.40;16.30;;;;;;5075061;28;20104;-54
2022/04/19 13:05:16;;;;;;;35.95;5.18;;;24.70;15.70;;;;;;5055401;28;20076;-59
2022/04/19 13:13:11;;;;;;;25.13;4.60;;;25.10;15.50;;;;;;5077993;28;20528;-55
2022/04/19 13:15:38;;;;;;;36.70;4.75;;;25.10;15.50;;;;;;5058625;28;20092;-55
2022/04/19 13:18:05;;;;;;;33.55;4.75;;;25.20;15.60;;;;;;5075833;28;20591;-58
2022/04/19 13:20:31;;;;;;;26.25;4.20;;;25.30;15.60;;;;;;5074189;28;20149;-58
2022/04/19 13:22:58;;;;;;;31.48;4.43;;;25.30;15.60;;;;;;5075378;28;20088;-59
2022/04/19 13:25:24;;;;;;;24.60;3.63;;;25.30;15.50;;;;;;5090990;28;20525;-55
2022/04/19 13:27:51;;;;;;;24.65;4.07;;;25.30;15.40;;;;;;5075035;28;20518;-58
2022/04/19 13:30:19;;;;;;;24.80;4.00;;;25.30;15.30;;;;;;5076337;28;20095;-56
2022/04/19 13:32:46;;;;;;;20.98;3.97;;;25.30;15.30;;;;;;5053991;28;20088;-58
2022/04/19 13:35:13;;;;;;;20.08;3.45;;;25.30;15.10;;;;;;5072073;28;20161;-55
2022/04/19 13:40:24;;;;;;;22.20;3.33;;;25.40;15.00;;;;;;5075186;28;20098;-54
2022/04/19 13:42:52;;;;;;;25.42;4.30;;;25.40;14.80;;;;;;5088181;28;20101;-53